createdAt,value
2022-10-18T00:00:09.655Z,3.99
2022-10-18T00:01:40.984Z,4.30
2022-10-18T00:03:12.349Z,3.67
2022-10-18T00:04:43.745Z,4.06
2022-10-18T00:06:15.391Z,3.34
2022-10-18T00:07:51.787Z,3.46
2022-10-18T00:09:23.299Z,3.37
2022-10-18T00:10:54.975Z,3.39
2022-10-18T00:12:26.517Z,3.32
2022-10-18T00:13:58.073Z,3.47
2022-10-18T00:15:29.783Z,3.24
2022-10-18T00:17:01.312Z,3.42
2022-10-18T00:18:32.722Z,3.36
2022-10-18T00:20:04.119Z,3.33
2022-10-18T00:21:41.016Z,3.46
2022-10-18T00:23:12.503Z,3.22
2022-10-18T00:24:44.395Z,3.20
2022-10-18T00:26:15.859Z,3.55
2022-10-18T00:27:47.358Z,3.54
2022-10-18T00:29:18.867Z,3.35
2022-10-18T00:32:21.884Z,3.61
2022-10-18T00:33:53.264Z,3.41
2022-10-18T00:35:24.795Z,3.23
2022-10-18T00:36:56.935Z,3.43
2022-10-18T00:38:28.377Z,3.74
2022-10-18T00:39:59.860Z,3.54
2022-10-18T00:41:31.264Z,3.44
2022-10-18T00:43:02.649Z,3.53
2022-10-18T00:44:36.452Z,3.43
2022-10-18T00:46:07.753Z,3.61
2022-10-18T00:47:39.144Z,3.61
2022-10-18T00:49:11.967Z,3.29
2022-10-18T00:50:43.550Z,3.54
2022-10-18T00:52:15.206Z,3.41
2022-10-18T00:53:46.580Z,3.42
2022-10-18T00:55:23.374Z,3.39
2022-10-18T00:56:55.370Z,3.45
2022-10-18T00:58:26.845Z,3.69
2022-10-18T00:59:58.364Z,3.53
2022-10-18T01:01:30.271Z,3.74
2022-10-18T01:03:01.680Z,3.69
2022-10-18T01:04:33.129Z,3.44
2022-10-18T01:06:04.747Z,3.39
2022-10-18T01:07:36.048Z,3.20
2022-10-18T01:09:07.442Z,3.27
2022-10-18T01:10:38.749Z,3.42
2022-10-18T01:12:10.485Z,3.37
2022-10-18T01:13:41.910Z,3.62
2022-10-18T01:15:13.685Z,2.96
2022-10-18T01:16:45.061Z,3.06
2022-10-18T01:18:16.503Z,2.90
2022-10-18T01:19:53.442Z,3.07
2022-10-18T01:21:24.903Z,3.01
2022-10-18T01:23:02.893Z,3.15
2022-10-18T01:24:34.621Z,2.86
2022-10-18T01:26:07.580Z,2.99
2022-10-18T01:27:38.942Z,3.08
2022-10-18T01:29:10.430Z,3.00
2022-10-18T01:30:41.742Z,3.10
2022-10-18T01:32:13.126Z,3.05
2022-10-18T01:33:44.533Z,3.32
2022-10-18T01:35:15.936Z,3.46
2022-10-18T01:36:47.620Z,3.45
2022-10-18T01:38:19.112Z,3.22
2022-10-18T01:39:50.604Z,3.18
2022-10-18T01:41:22.171Z,3.11
2022-10-18T01:42:53.613Z,3.14
2022-10-18T01:44:25.057Z,3.39
2022-10-18T01:45:56.483Z,2.89
2022-10-18T01:47:28.448Z,3.13
2022-10-18T01:49:00.538Z,3.62
2022-10-18T01:50:31.926Z,3.62
2022-10-18T01:52:03.329Z,3.56
2022-10-18T01:53:34.831Z,3.68
2022-10-18T01:55:06.205Z,3.58
2022-10-18T01:56:37.504Z,3.13
2022-10-18T01:58:09.010Z,3.63
2022-10-18T01:59:40.415Z,3.64
2022-10-18T02:02:43.024Z,3.15
2022-10-18T02:04:14.638Z,3.14
2022-10-18T02:05:46.012Z,3.30
2022-10-18T02:07:17.487Z,2.89
2022-10-18T02:08:49.333Z,3.21
2022-10-18T02:10:20.900Z,3.00
2022-10-18T02:11:52.463Z,2.84
2022-10-18T02:13:23.745Z,2.87
2022-10-18T02:14:55.051Z,2.79
2022-10-18T02:16:26.394Z,3.06
2022-10-18T02:17:57.829Z,2.98
2022-10-18T02:19:34.230Z,2.76
2022-10-18T02:21:05.816Z,2.92
2022-10-18T02:22:37.250Z,2.61
2022-10-18T02:24:09.052Z,2.98
2022-10-18T02:25:40.535Z,2.74
2022-10-18T02:27:11.911Z,2.93
2022-10-18T02:28:43.485Z,2.94
2022-10-18T02:30:14.794Z,2.90
2022-10-18T02:31:46.308Z,3.21
2022-10-18T02:33:17.713Z,2.77
2022-10-18T02:34:49.127Z,3.11
2022-10-18T02:36:20.504Z,2.66
2022-10-18T02:37:53.221Z,2.72
2022-10-18T02:39:24.622Z,2.84
2022-10-18T02:40:55.921Z,2.78
2022-10-18T02:42:27.259Z,2.73
2022-10-18T02:43:58.767Z,2.63
2022-10-18T02:45:30.178Z,2.74
2022-10-18T02:47:06.715Z,2.68
2022-10-18T02:48:38.122Z,2.66
2022-10-18T02:50:09.394Z,2.56
2022-10-18T02:51:45.859Z,2.67
2022-10-18T02:53:17.283Z,2.89
2022-10-18T02:54:48.601Z,3.12
2022-10-18T02:56:19.928Z,2.76
2022-10-18T02:57:51.389Z,2.98
2022-10-18T02:59:22.695Z,2.81
2022-10-18T03:00:54.113Z,2.74
2022-10-18T03:02:25.481Z,3.00
2022-10-18T03:03:56.996Z,2.73
2022-10-18T03:05:28.418Z,2.67
2022-10-18T03:07:00.046Z,2.94
2022-10-18T03:08:31.879Z,2.83
2022-10-18T03:10:03.655Z,3.01
2022-10-18T03:11:35.136Z,2.86
2022-10-18T03:13:06.515Z,2.76
2022-10-18T03:14:38.231Z,2.92
2022-10-18T03:16:23.120Z,2.89
2022-10-18T03:17:54.543Z,3.15
2022-10-18T03:19:27.871Z,2.89
2022-10-18T03:21:12.435Z,3.27
2022-10-18T03:22:44.795Z,3.10
2022-10-18T03:24:16.445Z,3.05
2022-10-18T03:25:52.999Z,3.23
2022-10-18T03:27:34.607Z,3.19
2022-10-18T03:29:11.232Z,3.15
2022-10-18T03:30:42.627Z,3.19
2022-10-18T03:32:14.057Z,3.15
2022-10-18T03:33:45.486Z,3.24
2022-10-18T03:35:17.040Z,3.03
2022-10-18T03:36:48.432Z,3.24
2022-10-18T03:38:19.752Z,3.60
2022-10-18T03:39:51.083Z,3.59
2022-10-18T03:41:22.472Z,3.78
2022-10-18T03:42:54.950Z,3.76
2022-10-18T03:44:26.367Z,3.51
2022-10-18T03:45:57.898Z,3.63
2022-10-18T03:47:30.341Z,3.60
2022-10-18T03:49:01.856Z,3.74
2022-10-18T03:50:33.193Z,3.82
2022-10-18T03:52:04.534Z,4.03
2022-10-18T03:53:36.115Z,3.99
2022-10-18T03:55:07.455Z,4.08
2022-10-18T03:56:42.922Z,4.38
2022-10-18T03:58:14.270Z,4.15
2022-10-18T03:59:45.807Z,4.42
2022-10-18T04:01:17.263Z,4.95
2022-10-18T04:02:51.973Z,5.32
2022-10-18T04:04:26.305Z,4.98
2022-10-18T04:05:57.706Z,5.31
2022-10-18T04:07:29.070Z,5.35
2022-10-18T04:09:01.199Z,5.63
2022-10-18T04:10:33.152Z,5.50
2022-10-18T04:12:04.560Z,5.33
2022-10-18T04:13:35.964Z,5.27
2022-10-18T04:15:07.964Z,5.01
2022-10-18T04:16:39.365Z,5.55
2022-10-18T04:18:10.784Z,5.31
2022-10-18T04:19:42.206Z,5.39
2022-10-18T04:21:13.681Z,5.70
2022-10-18T04:22:45.129Z,5.48
2022-10-18T04:24:16.730Z,5.47
2022-10-18T04:25:48.150Z,5.83
2022-10-18T04:27:26.378Z,5.88
2022-10-18T04:28:57.984Z,5.95
2022-10-18T04:30:53.995Z,6.31
2022-10-18T04:32:35.582Z,6.06
2022-10-18T04:34:10.266Z,6.34
2022-10-18T04:35:41.621Z,6.23
2022-10-18T04:37:18.024Z,6.54
2022-10-18T04:38:49.627Z,6.45
2022-10-18T04:40:25.962Z,6.50
2022-10-18T04:42:02.525Z,6.61
2022-10-18T04:43:34.099Z,6.39
2022-10-18T04:45:05.515Z,6.61
2022-10-18T04:46:37.233Z,6.80
2022-10-18T04:48:08.765Z,6.57
2022-10-18T04:49:40.499Z,6.70
2022-10-18T04:51:12.067Z,7.15
2022-10-18T04:52:43.522Z,7.22
2022-10-18T04:54:14.990Z,7.24
2022-10-18T04:55:46.628Z,7.22
2022-10-18T04:57:18.007Z,7.77
2022-10-18T04:58:49.382Z,7.61
2022-10-18T05:00:20.810Z,7.61
2022-10-18T05:01:57.385Z,7.92
2022-10-18T05:03:33.849Z,8.04
2022-10-18T05:05:08.056Z,7.82
2022-10-18T05:06:41.750Z,7.82
2022-10-18T05:08:13.317Z,7.99
2022-10-18T05:09:44.698Z,7.89
2022-10-18T05:11:16.085Z,8.78
2022-10-18T05:12:52.459Z,8.71
2022-10-18T05:14:24.154Z,8.52
2022-10-18T05:15:55.493Z,8.49
2022-10-18T05:17:26.955Z,8.44
2022-10-18T05:19:22.999Z,9.00
2022-10-18T05:20:59.797Z,9.69
2022-10-18T05:22:31.632Z,10.28
2022-10-18T05:24:03.270Z,10.99
2022-10-18T05:25:34.610Z,11.08
2022-10-18T05:27:06.989Z,10.64
2022-10-18T05:28:40.356Z,11.06
2022-10-18T05:30:33.372Z,11.42
2022-10-18T05:32:04.922Z,11.20
2022-10-18T05:33:36.320Z,11.02
2022-10-18T05:35:07.643Z,11.23
2022-10-18T05:36:39.069Z,11.56
2022-10-18T05:38:10.424Z,12.17
2022-10-18T05:39:41.718Z,11.73
2022-10-18T05:41:13.055Z,12.03
2022-10-18T05:42:44.534Z,12.29
2022-10-18T05:44:16.052Z,12.58
2022-10-18T05:45:47.432Z,12.03
2022-10-18T05:47:19.017Z,12.61
2022-10-18T05:49:17.774Z,12.31
2022-10-18T05:50:49.535Z,13.09
2022-10-18T05:52:20.959Z,12.95
2022-10-18T05:53:52.657Z,13.46
2022-10-18T05:55:23.959Z,12.73
2022-10-18T05:56:55.443Z,13.18
2022-10-18T05:58:26.776Z,12.96
2022-10-18T05:59:58.151Z,12.91
2022-10-18T06:01:29.663Z,13.24
2022-10-18T06:03:01.161Z,14.46
2022-10-18T06:04:32.760Z,13.68
2022-10-18T06:06:04.107Z,13.34
2022-10-18T06:07:35.641Z,12.84
2022-10-18T06:09:07.021Z,13.07
2022-10-18T06:10:38.410Z,13.11
2022-10-18T06:12:09.902Z,13.51
2022-10-18T06:13:41.339Z,13.42
2022-10-18T06:15:12.810Z,14.04
2022-10-18T06:16:44.143Z,13.29
2022-10-18T06:18:15.866Z,13.87
2022-10-18T06:19:47.237Z,13.27
2022-10-18T06:21:18.680Z,13.99
2022-10-18T06:22:50.158Z,14.32
2022-10-18T06:24:21.567Z,14.22
2022-10-18T06:25:52.917Z,14.23
2022-10-18T06:27:24.293Z,13.98
2022-10-18T06:28:55.796Z,13.98
2022-10-18T06:30:27.227Z,14.19
2022-10-18T06:32:03.561Z,14.06
2022-10-18T06:33:34.957Z,13.77
2022-10-18T06:35:06.324Z,13.87
2022-10-18T06:36:37.720Z,13.77
2022-10-18T06:38:09.327Z,14.04
2022-10-18T06:39:40.661Z,14.25
2022-10-18T06:41:12.178Z,14.18
2022-10-18T06:42:47.792Z,14.51
2022-10-18T06:44:26.708Z,14.95
2022-10-18T06:45:58.148Z,14.95
2022-10-18T06:47:29.634Z,14.74
2022-10-18T06:49:01.040Z,15.21
2022-10-18T06:50:32.612Z,14.23
2022-10-18T06:52:03.994Z,14.66
2022-10-18T06:53:40.735Z,15.43
2022-10-18T06:55:15.794Z,14.86
2022-10-18T06:56:47.179Z,15.58
2022-10-18T06:58:18.522Z,15.79
2022-10-18T06:59:49.887Z,15.75
2022-10-18T07:01:21.241Z,16.21
2022-10-18T07:02:52.629Z,15.78
2022-10-18T07:04:24.040Z,16.37
2022-10-18T07:05:55.523Z,16.91
2022-10-18T07:07:26.944Z,17.14
2022-10-18T07:08:58.458Z,16.59
2022-10-18T07:10:30.134Z,17.02
2022-10-18T07:12:01.575Z,17.22
2022-10-18T07:13:33.465Z,17.30
2022-10-18T07:15:09.127Z,16.64
2022-10-18T07:16:41.435Z,16.83
2022-10-18T07:18:13.231Z,17.06
2022-10-18T07:19:44.998Z,17.17
2022-10-18T07:21:16.942Z,17.78
2022-10-18T07:22:49.220Z,17.66
2022-10-18T07:24:21.812Z,17.10
2022-10-18T07:25:53.433Z,17.20
2022-10-18T07:27:25.268Z,17.80
2022-10-18T07:28:56.921Z,16.73
2022-10-18T07:30:28.869Z,17.10
2022-10-18T07:32:00.903Z,17.37
2022-10-18T07:33:33.264Z,16.97
2022-10-18T07:35:04.965Z,17.34
2022-10-18T07:36:36.699Z,16.81
2022-10-18T07:38:08.269Z,16.78
2022-10-18T07:39:39.866Z,17.06
2022-10-18T07:41:11.423Z,17.32
2022-10-18T07:42:42.987Z,17.15
2022-10-18T07:44:14.476Z,16.47
2022-10-18T07:45:45.984Z,16.72
2022-10-18T07:47:17.591Z,17.97
2022-10-18T07:48:49.129Z,17.25
2022-10-18T07:50:20.581Z,16.27
2022-10-18T07:51:52.027Z,16.08
2022-10-18T07:53:23.534Z,17.24
2022-10-18T07:54:54.949Z,18.85
2022-10-18T07:56:26.909Z,17.62
2022-10-18T07:57:58.266Z,18.39
2022-10-18T07:59:29.798Z,18.81
2022-10-18T08:01:01.223Z,18.20
2022-10-18T08:02:41.660Z,18.66
2022-10-18T08:04:18.162Z,18.68
2022-10-18T08:05:49.500Z,19.13
2022-10-18T08:07:57.673Z,19.49
2022-10-18T08:09:29.212Z,19.77
2022-10-18T08:11:00.627Z,20.21
2022-10-18T08:12:34.552Z,20.69
2022-10-18T08:14:06.140Z,20.56
2022-10-18T08:15:37.796Z,20.74
2022-10-18T08:17:09.160Z,20.99
2022-10-18T08:18:40.780Z,20.80
2022-10-18T08:20:29.509Z,21.49
2022-10-18T08:22:02.124Z,21.83
2022-10-18T08:23:33.568Z,21.74
2022-10-18T08:25:05.064Z,21.95
2022-10-18T08:26:36.459Z,21.90
2022-10-18T08:28:07.955Z,21.75
2022-10-18T08:29:39.661Z,21.49
2022-10-18T08:31:11.497Z,22.20
2022-10-18T08:32:42.925Z,22.53
2022-10-18T08:34:18.720Z,21.98
2022-10-18T08:35:51.358Z,22.33
2022-10-18T08:37:59.170Z,22.68
2022-10-18T08:39:30.494Z,24.48
2022-10-18T08:41:01.899Z,24.74
2022-10-18T08:42:34.513Z,25.08
2022-10-18T08:44:07.460Z,24.96
2022-10-18T08:45:42.691Z,25.58
2022-10-18T08:47:19.788Z,26.93
2022-10-18T08:48:51.200Z,27.58
2022-10-18T08:50:22.505Z,26.95
2022-10-18T08:51:53.841Z,29.24
2022-10-18T08:53:25.369Z,28.34
2022-10-18T08:54:56.875Z,28.65
2022-10-18T08:56:28.493Z,29.64
2022-10-18T08:57:59.996Z,31.12
2022-10-18T08:59:31.911Z,31.73
2022-10-18T09:01:03.408Z,32.41
2022-10-18T09:02:35.299Z,32.01
2022-10-18T09:04:07.906Z,32.33
2022-10-18T09:05:39.259Z,33.26
2022-10-18T09:07:10.610Z,32.65
2022-10-18T09:08:42.163Z,32.69
2022-10-18T09:10:13.596Z,31.39
2022-10-18T09:11:44.948Z,32.95
2022-10-18T09:13:16.550Z,34.20
2022-10-18T09:14:47.852Z,33.88
2022-10-18T09:16:19.385Z,33.42
2022-10-18T09:17:50.985Z,33.82
2022-10-18T09:19:22.561Z,34.86
2022-10-18T09:20:53.905Z,36.22
2022-10-18T09:22:25.519Z,36.82
2022-10-18T09:24:03.594Z,35.82
2022-10-18T09:25:38.984Z,37.12
2022-10-18T09:27:17.664Z,36.92
2022-10-18T09:28:49.709Z,36.43
2022-10-18T09:30:21.616Z,35.20
2022-10-18T09:31:53.297Z,35.13
2022-10-18T09:33:24.756Z,34.51
2022-10-18T09:34:56.506Z,34.70
2022-10-18T09:36:28.436Z,33.79
2022-10-18T09:38:00.727Z,33.54
2022-10-18T09:39:32.234Z,34.70
2022-10-18T09:41:03.648Z,33.27
2022-10-18T09:42:35.327Z,33.28
2022-10-18T09:44:07.448Z,33.38
2022-10-18T09:45:38.974Z,33.08
2022-10-18T09:47:13.396Z,32.06
2022-10-18T09:48:47.310Z,31.81
2022-10-18T09:50:19.044Z,32.09
2022-10-18T09:51:50.468Z,31.59
2022-10-18T09:53:21.964Z,30.61
2022-10-18T09:54:53.386Z,30.84
2022-10-18T09:56:24.815Z,31.64
2022-10-18T09:57:56.207Z,30.78
2022-10-18T09:59:27.926Z,30.96
2022-10-18T10:00:59.647Z,30.41
2022-10-18T10:02:31.025Z,30.09
2022-10-18T10:04:02.410Z,29.87
2022-10-18T10:05:33.738Z,29.80
2022-10-18T10:07:05.465Z,30.07
2022-10-18T10:08:36.832Z,30.34
2022-10-18T10:10:08.180Z,30.37
2022-10-18T10:11:39.538Z,29.75
2022-10-18T10:13:10.971Z,30.38
2022-10-18T10:14:42.525Z,29.83
2022-10-18T10:16:24.061Z,30.39
2022-10-18T10:18:11.326Z,30.07
2022-10-18T10:19:43.160Z,30.36
2022-10-18T10:21:24.816Z,30.29
2022-10-18T10:23:06.626Z,30.51
2022-10-18T10:25:08.330Z,31.09
2022-10-18T10:26:40.146Z,32.16
2022-10-18T10:28:16.907Z,31.36
2022-10-18T10:29:48.551Z,31.72
2022-10-18T10:31:20.195Z,33.01
2022-10-18T10:33:01.857Z,33.96
2022-10-18T10:34:33.280Z,33.73
2022-10-18T10:36:14.621Z,34.02
2022-10-18T10:37:46.011Z,33.66
2022-10-18T10:39:22.545Z,34.24
2022-10-18T10:41:16.038Z,33.54
2022-10-18T10:42:47.547Z,33.85
2022-10-18T10:44:27.888Z,34.02
2022-10-18T10:45:59.632Z,32.57
2022-10-18T10:47:31.477Z,31.50
2022-10-18T10:49:38.657Z,32.29
2022-10-18T10:51:11.697Z,30.45
2022-10-18T10:52:43.489Z,32.26
2022-10-18T10:54:15.183Z,31.20
2022-10-18T10:55:47.512Z,31.36
2022-10-18T10:57:20.730Z,29.89
2022-10-18T10:58:57.482Z,28.51
2022-10-18T11:00:30.665Z,30.54
2022-10-18T11:02:02.104Z,32.36
2022-10-18T11:03:38.565Z,33.25
2022-10-18T11:05:10.455Z,33.26
2022-10-18T11:06:47.084Z,33.17
2022-10-18T11:08:21.724Z,31.97
2022-10-18T11:09:55.637Z,33.07
2022-10-18T11:11:27.179Z,33.06
2022-10-18T11:12:58.906Z,32.59
2022-10-18T11:14:30.479Z,32.53
2022-10-18T11:16:31.102Z,33.03
2022-10-18T11:18:12.739Z,32.40
2022-10-18T11:19:44.745Z,32.46
2022-10-18T11:21:16.294Z,29.91
2022-10-18T11:22:48.564Z,29.36
2022-10-18T11:24:30.755Z,29.90
2022-10-18T11:26:02.941Z,28.59
2022-10-18T11:27:34.416Z,29.11
2022-10-18T11:29:31.003Z,29.26
2022-10-18T11:31:27.108Z,29.48
2022-10-18T11:34:06.964Z,28.29
2022-10-18T11:35:39.419Z,27.42
2022-10-18T11:37:28.146Z,27.82
2022-10-18T11:39:12.820Z,27.76
2022-10-18T11:40:44.337Z,26.44
2022-10-18T11:42:17.242Z,26.47
2022-10-18T11:44:02.235Z,26.67
2022-10-18T11:45:34.954Z,26.20
2022-10-18T11:47:06.607Z,25.39
2022-10-18T11:48:38.138Z,24.92
2022-10-18T11:50:10.068Z,24.34
2022-10-18T11:51:56.388Z,25.01
2022-10-18T11:53:35.623Z,24.01
2022-10-18T11:55:07.215Z,23.14
2022-10-18T11:56:38.723Z,23.57
2022-10-18T11:58:10.599Z,23.87
2022-10-18T11:59:43.393Z,23.83
2022-10-18T12:01:15.115Z,22.69
2022-10-18T12:02:47.131Z,22.87
2022-10-18T12:04:18.568Z,22.33
2022-10-18T12:05:50.531Z,18.00
2022-10-18T12:07:27.805Z,15.76
2022-10-18T12:09:02.240Z,16.35
2022-10-18T12:10:45.718Z,16.10
2022-10-18T12:12:33.618Z,16.60
2022-10-18T12:14:05.798Z,16.84
2022-10-18T12:16:05.906Z,17.20
2022-10-18T12:17:45.092Z,17.32
2022-10-18T12:19:23.441Z,17.65
2022-10-18T12:20:58.041Z,18.20
2022-10-18T12:22:30.061Z,17.33
2022-10-18T12:24:02.261Z,17.29
2022-10-18T12:25:33.989Z,17.22
2022-10-18T12:27:05.556Z,16.57
2022-10-18T12:28:37.179Z,17.27
2022-10-18T12:30:08.840Z,17.30
2022-10-18T12:31:45.953Z,15.87
2022-10-18T12:33:27.857Z,12.96
2022-10-18T12:35:01.589Z,13.01
2022-10-18T12:36:33.355Z,13.55
2022-10-18T12:38:05.183Z,13.87
2022-10-18T12:39:43.747Z,14.64
2022-10-18T12:41:22.187Z,12.73
2022-10-18T12:42:53.626Z,11.42
2022-10-18T12:44:25.287Z,11.84
2022-10-18T12:45:56.955Z,11.69
2022-10-18T12:47:28.562Z,11.87
2022-10-18T12:49:00.285Z,11.84
2022-10-18T12:50:35.281Z,11.98
2022-10-18T12:52:07.253Z,12.03
2022-10-18T12:53:38.756Z,12.60
2022-10-18T12:55:13.930Z,12.66
2022-10-18T12:56:48.424Z,11.73
2022-10-18T12:58:25.210Z,11.64
2022-10-18T12:59:57.924Z,11.32
2022-10-18T13:01:34.500Z,11.08
2022-10-18T13:03:06.567Z,10.96
2022-10-18T13:04:38.213Z,10.40
2022-10-18T13:06:09.777Z,9.92
2022-10-18T13:07:41.827Z,9.37
2022-10-18T13:09:13.204Z,9.13
2022-10-18T13:10:44.673Z,8.84
2022-10-18T13:12:16.504Z,8.81
2022-10-18T13:13:48.046Z,8.54
2022-10-18T13:15:25.993Z,8.56
2022-10-18T13:16:58.692Z,8.65
2022-10-18T13:18:30.120Z,9.66
2022-10-18T13:20:24.459Z,9.40
2022-10-18T13:21:57.315Z,8.23
2022-10-18T13:23:30.056Z,7.78
2022-10-18T13:25:03.748Z,7.43
2022-10-18T13:26:35.509Z,7.13
2022-10-18T13:28:07.589Z,6.71
2022-10-18T13:29:39.678Z,5.58
2022-10-18T13:31:11.094Z,5.47
2022-10-18T13:32:43.044Z,5.07
2022-10-18T13:34:14.497Z,4.60
2022-10-18T13:35:46.070Z,4.36
2022-10-18T13:37:17.598Z,4.65
2022-10-18T13:38:49.022Z,4.79
2022-10-18T13:40:20.430Z,5.01
2022-10-18T13:41:56.704Z,4.78
2022-10-18T13:43:29.850Z,4.84
2022-10-18T13:45:01.219Z,4.62
2022-10-18T13:46:32.797Z,4.56
2022-10-18T13:48:04.541Z,4.97
2022-10-18T13:49:36.133Z,4.38
2022-10-18T13:51:07.746Z,4.66
2022-10-18T13:52:39.468Z,4.59
2022-10-18T13:54:11.207Z,4.71
2022-10-18T13:55:42.992Z,5.25
2022-10-18T13:57:14.411Z,4.76
2022-10-18T13:58:49.300Z,5.12
2022-10-18T14:00:31.229Z,4.61
2022-10-18T14:02:03.100Z,4.69
2022-10-18T14:03:56.418Z,4.88
2022-10-18T14:05:30.639Z,5.16
2022-10-18T14:07:02.609Z,5.30
2022-10-18T14:10:06.957Z,5.28
2022-10-18T14:11:44.066Z,5.62
2022-10-18T14:13:23.242Z,4.66
2022-10-18T14:14:54.701Z,4.61
2022-10-18T14:16:26.145Z,4.16
2022-10-18T14:17:57.507Z,3.46
2022-10-18T14:19:28.901Z,3.07
2022-10-18T14:21:14.600Z,3.07
2022-10-18T14:22:54.532Z,3.20
2022-10-18T14:24:31.337Z,2.95
2022-10-18T14:26:03.911Z,3.05
2022-10-18T14:27:37.835Z,3.23
2022-10-18T14:29:12.182Z,3.10
2022-10-18T14:30:50.505Z,2.99
2022-10-18T14:32:22.201Z,3.55
2022-10-18T14:33:57.614Z,3.37
2022-10-18T14:35:32.995Z,3.16
2022-10-18T14:37:05.204Z,3.10
2022-10-18T14:38:36.989Z,2.74
2022-10-18T14:40:08.841Z,2.81
2022-10-18T14:41:40.348Z,3.44
2022-10-18T14:43:12.054Z,3.18
2022-10-18T14:44:43.521Z,3.48
2022-10-18T14:46:14.921Z,3.33
2022-10-18T14:47:46.493Z,3.16
2022-10-18T14:49:18.015Z,2.99
2022-10-18T14:50:54.471Z,3.44
2022-10-18T14:52:26.634Z,3.12
2022-10-18T14:53:59.236Z,2.66
2022-10-18T14:55:30.668Z,2.61
2022-10-18T14:57:02.128Z,2.70
2022-10-18T14:58:33.988Z,2.80
2022-10-18T15:00:06.081Z,2.89
2022-10-18T15:01:37.893Z,2.74
2022-10-18T15:03:09.939Z,2.75
2022-10-18T15:04:46.628Z,3.17
2022-10-18T15:06:18.583Z,3.00
2022-10-18T15:07:50.327Z,3.03
2022-10-18T15:09:23.611Z,3.27
2022-10-18T15:11:00.285Z,2.86
2022-10-18T15:12:36.957Z,2.54
2022-10-18T15:14:17.474Z,2.55
2022-10-18T15:15:49.656Z,2.48
2022-10-18T15:17:21.253Z,2.52
2022-10-18T15:18:52.677Z,2.45
2022-10-18T15:20:24.453Z,2.52
2022-10-18T15:22:08.095Z,2.83
2022-10-18T15:23:45.412Z,2.67
2022-10-18T15:25:18.699Z,2.58
2022-10-18T15:26:50.636Z,2.81
2022-10-18T15:28:22.535Z,2.52
2022-10-18T15:29:59.418Z,2.39
2022-10-18T15:31:31.598Z,2.56
2022-10-18T15:33:03.166Z,2.18
2022-10-18T15:34:34.656Z,2.45
2022-10-18T15:36:06.287Z,2.14
2022-10-18T15:37:38.428Z,2.28
2022-10-18T15:39:10.341Z,2.04
2022-10-18T15:40:41.778Z,2.18
2022-10-18T15:42:32.931Z,2.58
2022-10-18T15:44:14.088Z,2.10
2022-10-18T15:47:19.502Z,1.92
2022-10-18T15:48:56.656Z,2.15
2022-10-18T15:50:28.398Z,2.21
2022-10-18T15:52:00.120Z,2.11
2022-10-18T15:53:31.560Z,2.44
2022-10-18T15:55:03.365Z,2.12
2022-10-18T15:56:34.828Z,2.37
2022-10-18T15:58:06.247Z,2.30
2022-10-18T15:59:38.568Z,2.15
2022-10-18T16:01:30.492Z,2.40
2022-10-18T16:03:02.242Z,2.38
2022-10-18T16:04:33.956Z,2.27
2022-10-18T16:06:05.706Z,2.26
2022-10-18T16:08:00.119Z,2.56
2022-10-18T16:09:31.878Z,2.63
2022-10-18T16:11:13.351Z,2.47
2022-10-18T16:12:44.892Z,2.66
2022-10-18T16:14:16.366Z,2.50
2022-10-18T16:16:29.827Z,2.75
2022-10-18T16:18:01.393Z,2.80
2022-10-18T16:19:32.918Z,2.76
2022-10-18T16:21:14.382Z,2.54
2022-10-18T16:22:47.035Z,2.96
2022-10-18T16:24:48.905Z,3.56
2022-10-18T16:26:45.308Z,3.63
2022-10-18T16:28:22.501Z,3.19
2022-10-18T16:29:53.877Z,2.91
2022-10-18T16:31:25.319Z,2.91
2022-10-18T16:33:08.207Z,2.78
2022-10-18T16:34:39.626Z,2.40
2022-10-18T16:36:11.632Z,2.44
2022-10-18T16:37:44.034Z,2.32
2022-10-18T16:39:15.452Z,2.41
2022-10-18T16:40:52.445Z,2.51
2022-10-18T16:42:23.955Z,2.36
2022-10-18T16:44:06.364Z,2.43
2022-10-18T16:45:38.471Z,2.49
2022-10-18T16:47:15.245Z,2.90
2022-10-18T16:48:59.826Z,2.41
2022-10-18T16:51:07.544Z,2.65
2022-10-18T16:52:38.976Z,2.66
2022-10-18T16:54:10.553Z,2.44
2022-10-18T16:56:39.268Z,2.64
2022-10-18T16:58:13.018Z,2.22
2022-10-18T16:59:44.712Z,2.87
2022-10-18T17:01:16.368Z,2.74
2022-10-18T17:02:52.867Z,2.86
2022-10-18T17:04:26.738Z,2.59
2022-10-18T17:05:59.529Z,2.45
2022-10-18T17:07:36.248Z,2.65
2022-10-18T17:09:22.462Z,3.23
2022-10-18T17:10:54.103Z,3.92
2022-10-18T17:12:25.629Z,2.62
2022-10-18T17:14:02.432Z,2.57
2022-10-18T17:15:35.181Z,2.72
2022-10-18T17:17:16.502Z,2.44
2022-10-18T17:18:57.706Z,2.58
2022-10-18T17:20:29.229Z,3.36
2022-10-18T17:22:02.724Z,3.05
2022-10-18T17:23:39.762Z,3.28
2022-10-18T17:25:46.228Z,3.90
2022-10-18T17:27:31.165Z,5.34
2022-10-18T17:29:06.970Z,5.35
2022-10-18T17:31:25.188Z,5.29
2022-10-18T17:33:11.041Z,12.45
2022-10-18T17:34:42.985Z,22.85
2022-10-18T17:36:14.765Z,9.12
2022-10-18T17:37:47.421Z,8.99
2022-10-18T17:39:18.808Z,12.37
2022-10-18T17:41:16.765Z,21.25
2022-10-18T17:42:48.393Z,15.50
2022-10-18T17:44:19.695Z,4.04
2022-10-18T17:45:51.380Z,3.35
2022-10-18T17:47:33.531Z,3.56
2022-10-18T17:49:05.354Z,3.71
2022-10-18T17:50:42.148Z,3.99
2022-10-18T17:52:23.927Z,3.44
2022-10-18T17:53:55.560Z,3.60
2022-10-18T17:55:39.726Z,5.77
2022-10-18T17:57:11.735Z,9.93
2022-10-18T17:58:43.312Z,8.10
2022-10-18T18:00:20.151Z,6.17
2022-10-18T18:02:47.921Z,5.69
2022-10-18T18:04:25.868Z,4.80
2022-10-18T18:05:57.735Z,5.21
2022-10-18T18:07:29.349Z,5.14
2022-10-18T18:09:06.689Z,5.27
2022-10-18T18:10:38.125Z,7.05
2022-10-18T18:13:05.052Z,7.54
2022-10-18T18:14:42.711Z,6.30
2022-10-18T18:16:21.665Z,6.86
2022-10-18T18:18:19.503Z,9.07
2022-10-18T18:20:02.577Z,8.40
2022-10-18T18:21:34.317Z,8.13
2022-10-18T18:23:26.034Z,7.51
2022-10-18T18:24:57.797Z,6.09
2022-10-18T18:26:29.568Z,5.29
2022-10-18T18:28:06.598Z,5.25
2022-10-18T18:29:39.103Z,4.56
2022-10-18T18:31:10.663Z,4.28
2022-10-18T18:32:42.280Z,6.15
2022-10-18T18:34:14.350Z,12.51
2022-10-18T18:35:45.816Z,28.89
2022-10-18T18:37:28.611Z,23.26
2022-10-18T18:39:30.870Z,8.91
2022-10-18T18:41:02.276Z,4.65
2022-10-18T18:42:34.621Z,4.14
2022-10-18T18:44:11.813Z,3.86
2022-10-18T18:45:43.477Z,3.67
2022-10-18T18:47:15.057Z,3.68
2022-10-18T18:48:46.668Z,3.69
2022-10-18T18:52:08.107Z,3.63
2022-10-18T18:53:39.523Z,3.17
2022-10-18T18:55:11.307Z,3.31
2022-10-18T18:56:43.039Z,3.14
2022-10-18T18:58:19.531Z,3.07
2022-10-18T19:00:01.135Z,3.47
2022-10-18T19:01:32.630Z,3.27
2022-10-18T19:03:40.147Z,3.38
2022-10-18T19:05:12.435Z,3.45
2022-10-18T19:06:44.618Z,3.62
2022-10-18T19:08:16.286Z,3.11
2022-10-18T19:09:48.259Z,3.75
2022-10-18T19:11:20.311Z,4.25
2022-10-18T19:12:51.970Z,4.24
2022-10-18T19:14:31.044Z,4.29
2022-10-18T19:16:08.352Z,4.66
2022-10-18T19:17:40.176Z,6.05
2022-10-18T19:19:12.370Z,7.50
2022-10-18T19:20:55.515Z,8.34
2022-10-18T19:22:33.041Z,7.24
2022-10-18T19:24:05.468Z,7.48
2022-10-18T19:25:37.128Z,7.03
2022-10-18T19:27:08.734Z,5.97
2022-10-18T19:29:04.118Z,6.31
2022-10-18T19:30:36.192Z,6.36
2022-10-18T19:32:13.237Z,5.60
2022-10-18T19:33:48.765Z,6.29
2022-10-18T19:35:32.409Z,5.51
2022-10-18T19:37:03.753Z,4.85
2022-10-18T19:38:35.417Z,4.70
2022-10-18T19:40:10.791Z,6.04
2022-10-18T19:41:47.791Z,6.06
2022-10-18T19:43:19.554Z,5.68
2022-10-18T19:44:51.423Z,5.77
2022-10-18T19:46:23.118Z,5.35
2022-10-18T19:48:16.268Z,5.98
2022-10-18T19:49:48.658Z,5.73
2022-10-18T19:51:24.031Z,5.47
2022-10-18T19:52:57.107Z,5.90
2022-10-18T19:55:06.587Z,85.80
2022-10-18T19:56:38.278Z,77.34
2022-10-18T19:58:09.935Z,49.63
2022-10-18T20:01:13.018Z,8.02
2022-10-18T20:02:44.705Z,5.49
2022-10-18T20:04:16.288Z,6.60
2022-10-18T20:05:47.715Z,6.90
2022-10-18T20:07:19.787Z,6.56
2022-10-18T20:09:01.339Z,6.64
2022-10-18T20:10:32.831Z,12.71
2022-10-18T20:12:40.756Z,22.29
2022-10-18T20:14:13.100Z,20.19
2022-10-18T20:15:49.484Z,16.03
2022-10-18T20:17:40.745Z,13.21
2022-10-18T20:19:30.687Z,11.20
2022-10-18T20:23:03.381Z,8.92
2022-10-18T20:24:34.849Z,8.88
2022-10-18T20:26:12.948Z,11.06
2022-10-18T20:27:59.700Z,10.44
2022-10-18T20:29:31.283Z,10.56
2022-10-18T20:31:12.980Z,10.57
2022-10-18T20:32:44.844Z,10.16
2022-10-18T20:34:23.244Z,9.69
2022-10-18T20:35:54.772Z,10.81
2022-10-18T20:37:36.578Z,9.43
2022-10-18T20:39:23.661Z,10.00
2022-10-18T20:41:08.405Z,9.74
2022-10-18T20:42:39.945Z,8.97
2022-10-18T20:44:11.476Z,8.23
2022-10-18T20:45:42.978Z,7.61
2022-10-18T20:47:14.825Z,7.27
2022-10-18T20:48:46.140Z,6.33
2022-10-18T20:50:37.133Z,6.90
2022-10-18T20:52:08.515Z,6.61
2022-10-18T20:53:39.993Z,5.45